createdAt,value
2023-05-14T00:00:23.880Z,77.29
2023-05-14T00:02:50.870Z,77.87
2023-05-14T00:05:17.579Z,81.57
2023-05-14T00:07:45.586Z,79.47
2023-05-14T00:10:12.264Z,79.18
2023-05-14T00:12:38.927Z,81.49
2023-05-14T00:15:06.328Z,78.77
2023-05-14T00:17:33.189Z,80.18
2023-05-14T00:19:59.905Z,78.31
2023-05-14T00:22:26.505Z,77.10
2023-05-14T00:24:54.497Z,77.38
2023-05-14T00:27:21.142Z,77.37
2023-05-14T00:29:47.790Z,77.63
2023-05-14T00:32:14.411Z,79.63
2023-05-14T00:34:41.159Z,82.44
2023-05-14T00:37:07.807Z,85.06
2023-05-14T00:39:34.451Z,81.25
2023-05-14T00:42:02.468Z,78.89
2023-05-14T00:44:29.128Z,78.32
2023-05-14T00:46:55.950Z,78.11
2023-05-14T00:49:23.389Z,79.72
2023-05-14T00:51:50.122Z,80.85
2023-05-14T00:54:16.903Z,80.21
2023-05-14T00:56:45.077Z,80.01
2023-05-14T00:59:13.225Z,78.98
2023-05-14T01:01:39.973Z,78.37
2023-05-14T01:04:07.288Z,79.91
2023-05-14T01:06:37.817Z,81.11
2023-05-14T01:09:08.847Z,79.34
2023-05-14T01:11:39.987Z,78.53
2023-05-14T01:14:11.090Z,80.02
2023-05-14T01:16:40.270Z,82.01
2023-05-14T01:19:10.415Z,83.07
2023-05-14T01:21:40.796Z,83.26
2023-05-14T01:24:07.693Z,80.05
2023-05-14T01:26:35.049Z,79.59
2023-05-14T01:29:03.953Z,79.58
2023-05-14T01:31:32.321Z,79.52
2023-05-14T01:34:00.271Z,79.45
2023-05-14T01:36:28.717Z,78.99
2023-05-14T01:38:57.604Z,78.32
2023-05-14T01:41:25.485Z,78.61
2023-05-14T01:43:52.366Z,79.84
2023-05-14T01:46:19.455Z,78.79
2023-05-14T01:48:46.409Z,81.98
2023-05-14T01:51:15.184Z,84.06
2023-05-14T01:53:41.885Z,82.62
2023-05-14T01:56:09.863Z,79.14
2023-05-14T01:58:36.564Z,80.00
2023-05-14T02:01:03.276Z,78.93
2023-05-14T02:03:30.011Z,79.14
2023-05-14T02:05:56.706Z,78.95
2023-05-14T02:08:23.554Z,78.66
2023-05-14T02:10:50.499Z,78.79
2023-05-14T02:13:18.576Z,79.86
2023-05-14T02:15:45.853Z,82.42
2023-05-14T02:18:12.724Z,80.95
2023-05-14T02:20:39.440Z,79.42
2023-05-14T02:23:06.130Z,79.27
2023-05-14T02:25:32.738Z,79.60
2023-05-14T02:27:59.474Z,79.63
2023-05-14T02:30:27.592Z,78.80
2023-05-14T02:32:54.443Z,78.55
2023-05-14T02:35:21.239Z,78.41
2023-05-14T02:37:48.242Z,78.14
2023-05-14T02:40:15.039Z,77.58
2023-05-14T02:42:41.682Z,78.57
2023-05-14T02:45:08.639Z,78.22
2023-05-14T02:47:38.194Z,77.83
2023-05-14T02:50:06.456Z,77.56
2023-05-14T02:52:35.512Z,77.82
2023-05-14T02:55:02.404Z,77.93
2023-05-14T02:57:29.233Z,77.58
2023-05-14T02:59:55.884Z,78.13
2023-05-14T03:02:22.873Z,78.34
2023-05-14T03:04:51.412Z,77.89
2023-05-14T03:07:18.061Z,77.95
2023-05-14T03:09:45.263Z,79.00
2023-05-14T03:12:12.928Z,78.94
2023-05-14T03:14:39.656Z,78.54
2023-05-14T03:17:06.320Z,78.12
2023-05-14T03:19:33.222Z,78.09
2023-05-14T03:22:01.304Z,77.62
2023-05-14T03:24:27.950Z,77.46
2023-05-14T03:26:54.638Z,77.39
2023-05-14T03:29:21.292Z,76.73
2023-05-14T03:31:48.309Z,76.99
2023-05-14T03:34:14.967Z,77.17
2023-05-14T03:36:41.674Z,76.98
2023-05-14T03:39:09.770Z,76.54
2023-05-14T03:41:37.477Z,76.26
2023-05-14T03:44:06.353Z,76.92
2023-05-14T03:46:33.256Z,77.09
2023-05-14T03:49:00.049Z,76.85
2023-05-14T03:51:26.750Z,76.95
2023-05-14T03:53:53.421Z,76.84
2023-05-14T03:56:22.601Z,77.06
2023-05-14T03:58:49.274Z,76.36
2023-05-14T04:01:15.992Z,76.21
2023-05-14T04:03:42.780Z,76.01
2023-05-14T04:06:10.098Z,75.84
2023-05-14T04:08:36.792Z,75.86
2023-05-14T04:11:03.478Z,75.79
2023-05-14T04:13:31.512Z,75.52
2023-05-14T04:15:58.552Z,75.47
2023-05-14T04:18:25.389Z,75.71
2023-05-14T04:20:52.044Z,75.65
2023-05-14T04:23:18.687Z,75.15
2023-05-14T04:25:45.325Z,75.67
2023-05-14T04:28:12.031Z,74.95
2023-05-14T04:30:40.548Z,74.51
2023-05-14T04:33:07.352Z,74.31
2023-05-14T04:35:34.065Z,74.24
2023-05-14T04:38:00.873Z,74.64
2023-05-14T04:40:27.605Z,74.88
2023-05-14T04:42:54.275Z,74.85
2023-05-14T04:45:20.990Z,74.44
2023-05-14T04:47:49.122Z,74.47
2023-05-14T04:50:16.543Z,74.38
2023-05-14T04:52:43.310Z,74.67
2023-05-14T04:55:10.330Z,74.82
2023-05-14T04:57:36.974Z,74.80
2023-05-14T05:00:05.974Z,74.66
2023-05-14T05:02:34.772Z,74.72
2023-05-14T05:05:02.988Z,75.67
2023-05-14T05:07:30.056Z,75.63
2023-05-14T05:09:56.760Z,75.81
2023-05-14T05:12:23.448Z,77.37
2023-05-14T05:14:50.077Z,68.08
2023-05-14T05:17:16.924Z,65.78
2023-05-14T05:19:44.559Z,66.08
2023-05-14T05:22:12.920Z,66.35
2023-05-14T05:24:39.618Z,63.76
2023-05-14T05:27:06.324Z,60.20
2023-05-14T05:29:33.179Z,57.54
2023-05-14T05:32:00.094Z,55.83
2023-05-14T05:34:26.913Z,52.86
2023-05-14T05:36:53.645Z,51.31
2023-05-14T05:39:21.701Z,51.34
2023-05-14T05:41:48.501Z,49.92
2023-05-14T05:44:15.127Z,52.21
2023-05-14T05:46:41.914Z,56.78
2023-05-14T05:49:08.581Z,57.22
2023-05-14T05:51:35.319Z,57.28
2023-05-14T05:54:02.150Z,58.27
2023-05-14T05:56:30.796Z,59.54
2023-05-14T05:58:57.602Z,59.79
2023-05-14T06:01:24.710Z,59.75
2023-05-14T06:03:51.304Z,61.41
2023-05-14T06:06:17.944Z,62.14
2023-05-14T06:08:44.627Z,62.01
2023-05-14T06:11:11.306Z,62.25
2023-05-14T06:13:39.352Z,61.98
2023-05-14T06:16:06.381Z,63.26
2023-05-14T06:18:33.143Z,62.09
2023-05-14T06:21:00.310Z,62.94
2023-05-14T06:23:27.171Z,59.67
2023-05-14T06:25:53.808Z,59.08
2023-05-14T06:28:20.505Z,60.00
2023-05-14T06:30:50.934Z,59.90
2023-05-14T06:33:19.375Z,61.63
2023-05-14T06:35:47.201Z,61.48
2023-05-14T06:38:13.848Z,62.05
2023-05-14T06:40:40.467Z,62.57
2023-05-14T06:43:07.102Z,64.67
2023-05-14T06:45:33.957Z,62.97
2023-05-14T06:48:02.062Z,57.54
2023-05-14T06:50:28.689Z,57.08
2023-05-14T06:52:55.383Z,59.01
2023-05-14T06:55:22.077Z,54.91
2023-05-14T06:57:48.852Z,51.34
2023-05-14T07:00:16.201Z,51.70
2023-05-14T07:02:43.158Z,49.32
2023-05-14T07:05:11.526Z,46.76
2023-05-14T07:07:38.282Z,47.24
2023-05-14T07:10:05.878Z,47.93
2023-05-14T07:12:32.498Z,47.83
2023-05-14T07:14:59.237Z,50.47
2023-05-14T07:17:26.083Z,49.27
2023-05-14T07:19:52.829Z,51.48
2023-05-14T07:22:20.905Z,48.23
2023-05-14T07:24:47.786Z,48.40
2023-05-14T07:27:14.478Z,48.77
2023-05-14T07:29:41.177Z,49.34
2023-05-14T07:32:07.778Z,49.97
2023-05-14T07:34:34.568Z,48.95
2023-05-14T07:37:01.400Z,50.06
2023-05-14T07:39:29.489Z,47.77
2023-05-14T07:41:56.302Z,46.47
2023-05-14T07:44:22.953Z,49.94
2023-05-14T07:46:49.786Z,46.88
2023-05-14T07:49:16.552Z,46.21
2023-05-14T07:51:43.196Z,46.33
2023-05-14T07:54:11.288Z,48.39
2023-05-14T07:56:39.314Z,48.50
2023-05-14T07:59:07.350Z,46.61
2023-05-14T08:01:34.082Z,48.13
2023-05-14T08:04:01.071Z,48.10
2023-05-14T08:06:28.293Z,47.43
2023-05-14T08:08:55.352Z,45.47
2023-05-14T08:11:22.552Z,48.02
2023-05-14T08:13:50.640Z,46.44
2023-05-14T08:16:17.402Z,46.88
2023-05-14T08:18:44.191Z,45.49
2023-05-14T08:21:11.105Z,46.50
2023-05-14T08:23:37.866Z,45.67
2023-05-14T08:26:04.775Z,45.49
2023-05-14T08:28:31.474Z,45.87
2023-05-14T08:30:59.548Z,45.31
2023-05-14T08:33:26.246Z,47.26
2023-05-14T08:35:53.353Z,45.41
2023-05-14T08:38:20.050Z,45.99
2023-05-14T08:40:48.382Z,45.16
2023-05-14T08:43:17.482Z,46.56
2023-05-14T08:45:44.552Z,47.26
2023-05-14T08:48:15.948Z,49.04
2023-05-14T08:50:43.712Z,45.34
2023-05-14T08:53:10.649Z,44.03
2023-05-14T08:55:37.717Z,44.91
2023-05-14T08:58:04.373Z,47.00
2023-05-14T09:00:31.031Z,44.44
2023-05-14T09:02:58.279Z,43.58
2023-05-14T09:05:26.352Z,46.21
2023-05-14T09:07:53.090Z,41.18
2023-05-14T09:10:21.072Z,41.36
2023-05-14T09:12:47.990Z,41.32
2023-05-14T09:15:14.754Z,40.50
2023-05-14T09:17:41.456Z,40.61
2023-05-14T09:20:09.383Z,44.11
2023-05-14T09:22:38.571Z,42.32
2023-05-14T09:25:06.460Z,40.92
2023-05-14T09:27:33.395Z,39.88
2023-05-14T09:30:07.633Z,42.40
2023-05-14T09:32:44.242Z,39.96
2023-05-14T09:35:12.607Z,41.77
2023-05-14T09:37:44.021Z,40.04
2023-05-14T09:40:11.918Z,40.17
2023-05-14T09:42:38.500Z,41.88
2023-05-14T09:45:06.999Z,42.32
2023-05-14T09:47:33.944Z,40.95
2023-05-14T09:50:00.773Z,39.60
2023-05-14T09:52:27.445Z,43.04
2023-05-14T09:54:55.524Z,40.28
2023-05-14T09:57:22.180Z,42.35
2023-05-14T09:59:48.916Z,42.31
2023-05-14T10:02:21.964Z,41.82
2023-05-14T10:04:49.761Z,41.25
2023-05-14T10:07:17.547Z,39.69
2023-05-14T10:09:45.803Z,42.76
2023-05-14T10:12:15.315Z,43.50
2023-05-14T10:14:46.783Z,41.74
2023-05-14T10:17:18.382Z,42.40
2023-05-14T10:19:48.054Z,43.68
2023-05-14T10:22:16.008Z,43.21
2023-05-14T10:24:43.140Z,44.06
2023-05-14T10:27:10.485Z,42.56
2023-05-14T10:29:38.535Z,41.71
2023-05-14T10:32:08.979Z,42.26
2023-05-14T10:34:40.979Z,41.65
2023-05-14T10:37:08.687Z,41.20
2023-05-14T10:39:42.647Z,41.19
2023-05-14T10:42:10.937Z,40.61
2023-05-14T10:44:42.833Z,38.96
2023-05-14T10:47:09.630Z,39.44
2023-05-14T10:49:43.344Z,39.65
2023-05-14T10:52:11.748Z,37.22
2023-05-14T10:54:38.677Z,37.69
2023-05-14T10:57:11.084Z,40.63
2023-05-14T10:59:40.943Z,40.93
2023-05-14T11:02:19.120Z,38.99
2023-05-14T11:04:52.138Z,38.68
2023-05-14T11:07:19.316Z,36.78
2023-05-14T11:09:47.120Z,35.18
2023-05-14T11:12:13.866Z,36.16
2023-05-14T11:14:42.123Z,37.95
2023-05-14T11:17:09.050Z,36.60
2023-05-14T11:19:36.115Z,36.97
2023-05-14T11:22:02.775Z,37.29
2023-05-14T11:24:29.406Z,37.07
2023-05-14T11:26:56.396Z,36.30
2023-05-14T11:29:23.037Z,35.26
2023-05-14T11:31:51.553Z,36.88
2023-05-14T11:34:18.216Z,35.21
2023-05-14T11:36:44.902Z,37.16
2023-05-14T11:39:17.618Z,35.63
2023-05-14T11:41:44.502Z,37.32
2023-05-14T11:44:11.246Z,37.60
2023-05-14T11:46:37.875Z,37.12
2023-05-14T11:49:06.773Z,36.59
2023-05-14T11:51:33.511Z,35.14
2023-05-14T11:54:00.167Z,35.89
2023-05-14T11:56:26.853Z,36.07
2023-05-14T11:58:56.680Z,36.48
2023-05-14T12:01:23.354Z,34.95
2023-05-14T12:03:50.415Z,35.31
2023-05-14T12:06:19.115Z,34.96
2023-05-14T12:08:47.846Z,34.48
2023-05-14T12:11:14.500Z,35.53
2023-05-14T12:13:41.185Z,36.27
2023-05-14T12:16:07.893Z,35.66
2023-05-14T12:18:34.730Z,36.57
2023-05-14T12:21:05.218Z,37.19
2023-05-14T12:23:33.392Z,36.36
2023-05-14T12:26:01.662Z,36.55
2023-05-14T12:28:28.752Z,37.68
2023-05-14T12:30:58.624Z,36.27
2023-05-14T12:35:53.962Z,36.77
2023-05-14T12:38:20.818Z,37.25
2023-05-14T12:40:48.847Z,38.16
2023-05-14T12:43:15.546Z,37.20
2023-05-14T12:45:42.204Z,37.20
2023-05-14T12:48:08.934Z,37.11
2023-05-14T12:53:33.744Z,37.66
2023-05-14T12:56:01.740Z,38.96
2023-05-14T12:58:28.519Z,41.69
2023-05-14T13:00:55.179Z,39.21
2023-05-14T13:03:22.105Z,34.35
2023-05-14T13:05:48.879Z,34.00
2023-05-14T13:08:17.904Z,35.52
2023-05-14T13:10:44.670Z,33.66
2023-05-14T13:13:12.999Z,36.26
2023-05-14T13:15:39.649Z,36.30
2023-05-14T13:18:06.772Z,35.40
2023-05-14T13:20:33.852Z,38.19
2023-05-14T13:23:00.577Z,37.41
2023-05-14T13:25:27.712Z,34.53
2023-05-14T13:27:54.354Z,33.23
2023-05-14T13:30:22.459Z,36.49
2023-05-14T13:32:49.244Z,36.47
2023-05-14T13:35:15.937Z,35.32
2023-05-14T13:37:43.000Z,35.92
2023-05-14T13:40:10.676Z,34.66
2023-05-14T13:42:37.530Z,38.05
2023-05-14T13:45:04.512Z,33.88
2023-05-14T13:47:33.594Z,35.65
2023-05-14T13:50:00.360Z,33.79
2023-05-14T13:52:26.985Z,34.76
2023-05-14T13:54:53.631Z,36.58
2023-05-14T13:57:21.512Z,33.17
2023-05-14T13:59:48.305Z,33.75
2023-05-14T14:02:15.050Z,34.95
2023-05-14T14:04:43.305Z,33.01
2023-05-14T14:07:10.021Z,33.65
2023-05-14T14:09:37.005Z,32.53
2023-05-14T14:12:04.171Z,33.53
2023-05-14T14:14:31.058Z,33.79
2023-05-14T14:16:57.757Z,32.46
2023-05-14T14:19:24.681Z,32.58
2023-05-14T14:21:53.181Z,34.38
2023-05-14T14:24:20.120Z,33.56
2023-05-14T14:26:46.744Z,33.67
2023-05-14T14:29:13.374Z,33.52
2023-05-14T14:31:40.120Z,32.71
2023-05-14T14:34:06.836Z,33.41
2023-05-14T14:36:33.438Z,33.26
2023-05-14T14:39:01.428Z,34.59
2023-05-14T14:41:28.566Z,31.71
2023-05-14T14:43:55.235Z,30.09
2023-05-14T14:46:21.941Z,29.98
2023-05-14T14:48:48.716Z,31.99
2023-05-14T14:51:15.461Z,31.31
2023-05-14T14:53:42.134Z,31.23
2023-05-14T14:56:10.162Z,31.73
2023-05-14T14:58:37.073Z,29.47
2023-05-14T15:01:03.900Z,27.68
2023-05-14T15:03:31.441Z,28.18
2023-05-14T15:05:58.279Z,30.33
2023-05-14T15:08:25.775Z,29.05
2023-05-14T15:10:52.545Z,27.10
2023-05-14T15:13:20.768Z,26.52
2023-05-14T15:15:47.543Z,26.85
2023-05-14T15:18:14.203Z,27.28
2023-05-14T15:20:40.917Z,28.02
2023-05-14T15:23:07.717Z,28.33
2023-05-14T15:25:34.408Z,29.22
2023-05-14T15:28:01.426Z,27.96
2023-05-14T15:30:30.344Z,26.76
2023-05-14T15:32:57.225Z,27.53
2023-05-14T15:35:24.054Z,27.50
2023-05-14T15:37:50.944Z,28.16
2023-05-14T15:40:18.821Z,28.38
2023-05-14T15:42:46.870Z,28.33
2023-05-14T15:45:14.185Z,28.55
2023-05-14T15:47:42.268Z,29.15
2023-05-14T15:50:09.348Z,29.44
2023-05-14T15:52:36.529Z,32.81
2023-05-14T15:55:04.446Z,35.38
2023-05-14T15:57:31.718Z,36.20
2023-05-14T15:59:58.473Z,35.99
2023-05-14T16:02:25.171Z,34.44
2023-05-14T16:04:53.283Z,35.55
2023-05-14T16:07:19.930Z,36.57
2023-05-14T16:09:46.551Z,36.34
2023-05-14T16:12:14.338Z,35.91
2023-05-14T16:14:42.191Z,37.27
2023-05-14T16:17:09.156Z,36.14
2023-05-14T16:19:35.828Z,36.90
2023-05-14T16:22:03.886Z,36.61
2023-05-14T16:24:30.629Z,35.58
2023-05-14T16:26:57.341Z,35.38
2023-05-14T16:29:24.063Z,35.19
2023-05-14T16:31:50.739Z,34.82
2023-05-14T16:34:17.448Z,35.12
2023-05-14T16:36:44.146Z,35.55
2023-05-14T16:39:12.191Z,35.89
2023-05-14T16:41:38.845Z,35.99
2023-05-14T16:44:05.499Z,35.93
2023-05-14T16:46:32.427Z,36.56
2023-05-14T16:48:59.378Z,37.02
2023-05-14T16:51:26.020Z,36.41
2023-05-14T16:53:54.680Z,37.13
2023-05-14T16:56:24.090Z,37.42
2023-05-14T16:58:50.803Z,37.05
2023-05-14T17:01:17.564Z,37.04
2023-05-14T17:03:45.686Z,37.68
2023-05-14T17:06:12.388Z,38.68
2023-05-14T17:08:39.090Z,38.18
2023-05-14T17:11:06.056Z,37.90
2023-05-14T17:13:34.225Z,37.88
2023-05-14T17:16:01.108Z,39.23
2023-05-14T17:18:28.297Z,38.31
2023-05-14T17:20:55.267Z,38.24
2023-05-14T17:23:21.954Z,38.22
2023-05-14T17:25:48.603Z,39.23
2023-05-14T17:28:15.237Z,39.87
2023-05-14T17:30:43.839Z,39.04
2023-05-14T17:33:11.566Z,39.39
2023-05-14T17:35:38.664Z,39.34
2023-05-14T17:38:05.381Z,39.81
2023-05-14T17:40:32.120Z,38.96
2023-05-14T17:42:58.781Z,39.54
2023-05-14T17:45:26.273Z,40.49
2023-05-14T17:47:54.803Z,40.33
2023-05-14T17:50:21.504Z,40.96
2023-05-14T17:52:48.448Z,40.98
2023-05-14T17:55:17.406Z,40.67
2023-05-14T17:57:44.245Z,41.40
2023-05-14T18:00:11.614Z,41.03
2023-05-14T18:02:38.427Z,41.43
2023-05-14T18:05:06.864Z,42.21
2023-05-14T18:07:34.807Z,42.08
2023-05-14T18:10:01.460Z,42.73
2023-05-14T18:12:29.159Z,43.11
2023-05-14T18:14:56.144Z,42.73
2023-05-14T18:17:23.066Z,44.30
2023-05-14T18:19:49.796Z,42.69
2023-05-14T18:22:17.912Z,41.93
2023-05-14T18:24:45.010Z,43.16
2023-05-14T18:27:11.704Z,43.43
2023-05-14T18:29:38.332Z,44.30
2023-05-14T18:32:05.378Z,43.55
2023-05-14T18:34:32.044Z,43.33
2023-05-14T18:36:58.783Z,42.78
2023-05-14T18:39:26.805Z,43.04
2023-05-14T18:41:54.054Z,44.00
2023-05-14T18:44:20.771Z,43.35
2023-05-14T18:46:47.506Z,43.62
2023-05-14T18:49:14.279Z,44.17
2023-05-14T18:51:40.944Z,43.88
2023-05-14T18:54:07.637Z,44.02
2023-05-14T18:56:36.870Z,44.44
2023-05-14T18:59:04.359Z,44.83
2023-05-14T19:01:31.471Z,45.41
2023-05-14T19:03:58.297Z,46.13
2023-05-14T19:06:25.168Z,46.49
2023-05-14T19:08:52.112Z,46.98
2023-05-14T19:11:18.774Z,47.12
2023-05-14T19:13:47.887Z,48.94
2023-05-14T19:16:14.719Z,48.48
2023-05-14T19:18:41.523Z,49.03
2023-05-14T19:21:08.180Z,49.13
2023-05-14T19:23:34.872Z,49.86
2023-05-14T19:26:01.618Z,50.08
2023-05-14T19:28:28.335Z,50.03
2023-05-14T19:30:57.293Z,50.42
2023-05-14T19:33:24.110Z,50.20
2023-05-14T19:35:51.057Z,50.48
2023-05-14T19:38:19.145Z,50.74
2023-05-14T19:40:45.877Z,50.90
2023-05-14T19:43:12.535Z,51.23
2023-05-14T19:45:39.409Z,49.79
2023-05-14T19:48:07.729Z,49.01
2023-05-14T19:50:36.916Z,49.78
2023-05-14T19:53:04.574Z,52.10
2023-05-14T19:55:31.262Z,54.51
2023-05-14T19:57:57.912Z,57.52
2023-05-14T20:00:24.839Z,60.44
2023-05-14T20:02:51.682Z,59.12
2023-05-14T20:05:19.819Z,60.05
2023-05-14T20:07:48.913Z,60.32
2023-05-14T20:10:15.635Z,60.68
2023-05-14T20:12:42.271Z,60.51
2023-05-14T20:15:09.544Z,60.79
2023-05-14T20:17:37.299Z,61.04
2023-05-14T20:20:04.978Z,60.78
2023-05-14T20:22:32.995Z,61.36
2023-05-14T20:24:59.700Z,64.15
2023-05-14T20:27:26.339Z,63.62
2023-05-14T20:29:54.160Z,64.16
2023-05-14T20:32:24.931Z,65.90
2023-05-14T20:34:51.931Z,67.25
2023-05-14T20:37:19.876Z,66.95
2023-05-14T20:39:48.089Z,69.67
2023-05-14T20:42:14.795Z,72.73
2023-05-14T20:44:41.446Z,75.43
2023-05-14T20:47:08.077Z,75.31
2023-05-14T20:49:34.688Z,73.73
2023-05-14T20:52:01.585Z,70.72
2023-05-14T20:54:28.194Z,70.25
2023-05-14T20:56:56.183Z,69.08
2023-05-14T20:59:22.828Z,69.38
2023-05-14T21:01:49.597Z,69.93
2023-05-14T21:04:16.485Z,69.75
2023-05-14T21:06:43.303Z,69.54
2023-05-14T21:09:10.891Z,71.78
2023-05-14T21:11:37.574Z,72.73
2023-05-14T21:14:05.724Z,72.23
2023-05-14T21:16:32.742Z,72.90
2023-05-14T21:18:59.504Z,74.34
2023-05-14T21:21:26.207Z,76.45
2023-05-14T21:23:52.932Z,76.73
2023-05-14T21:26:21.643Z,76.33
2023-05-14T21:28:48.383Z,79.09
2023-05-14T21:31:16.417Z,79.10
2023-05-14T21:33:43.186Z,79.50
2023-05-14T21:36:09.917Z,78.39
2023-05-14T21:38:36.682Z,79.91
2023-05-14T21:41:03.367Z,79.84
2023-05-14T21:43:30.120Z,76.71
2023-05-14T21:45:56.730Z,77.42
2023-05-14T21:48:24.809Z,77.82
2023-05-14T21:50:51.516Z,78.69
2023-05-14T21:53:18.170Z,77.98
2023-05-14T21:55:44.806Z,79.27
2023-05-14T21:58:11.660Z,77.13
2023-05-14T22:00:38.251Z,76.73
2023-05-14T22:03:05.049Z,76.84
2023-05-14T22:05:33.153Z,76.43
2023-05-14T22:07:59.821Z,75.32
2023-05-14T22:10:26.409Z,76.41
2023-05-14T22:12:53.084Z,77.41
2023-05-14T22:15:19.637Z,77.64
2023-05-14T22:17:47.199Z,80.46
2023-05-14T22:20:14.003Z,81.32
2023-05-14T22:22:42.005Z,81.79
2023-05-14T22:25:09.015Z,82.02
2023-05-14T22:27:35.708Z,80.64
2023-05-14T22:30:02.377Z,79.13
2023-05-14T22:32:29.008Z,79.13
2023-05-14T22:34:55.838Z,78.27
2023-05-14T22:37:22.550Z,78.10
2023-05-14T22:39:50.572Z,77.26
2023-05-14T22:42:17.294Z,77.18
2023-05-14T22:44:43.886Z,76.93
2023-05-14T22:47:10.640Z,77.14
2023-05-14T22:49:37.223Z,79.91
2023-05-14T22:52:04.058Z,82.11
2023-05-14T22:54:30.628Z,80.38
2023-05-14T22:56:58.633Z,77.95
2023-05-14T22:59:25.339Z,76.61
2023-05-14T23:01:52.087Z,76.74
2023-05-14T23:04:18.693Z,75.82
2023-05-14T23:06:45.366Z,76.29
2023-05-14T23:09:12.006Z,76.84
2023-05-14T23:11:38.673Z,77.00
2023-05-14T23:14:06.653Z,77.06
2023-05-14T23:16:33.413Z,77.18
2023-05-14T23:19:00.099Z,77.11
2023-05-14T23:21:27.234Z,77.22
2023-05-14T23:23:53.905Z,77.79
2023-05-14T23:26:21.546Z,77.29
2023-05-14T23:28:48.281Z,77.22
2023-05-14T23:31:16.297Z,76.57
2023-05-14T23:33:44.703Z,76.81
2023-05-14T23:36:11.357Z,76.18
2023-05-14T23:38:38.169Z,76.23
2023-05-14T23:41:05.179Z,77.12
2023-05-14T23:43:33.570Z,77.74
2023-05-14T23:46:00.397Z,78.00
2023-05-14T23:48:28.447Z,77.48
2023-05-14T23:50:55.000Z,76.71
2023-05-14T23:53:21.651Z,76.52
2023-05-14T23:55:48.288Z,77.75
2023-05-14T23:58:15.029Z,77.77
